Time;durP1;ratioP1;P1;durP2;ratioP2;P2;SDS_P1;SDS_P2;PMS_P1;PMS_P2;Temp;Humidity;BMP_temperature;BMP_pressure;BME280_temperature;BME280_humidity;BME280_pressure;Samples;Min_cycle;Max_cycle;Signal;HPM_P1;HPM_P2
2022/01/24 00:00:14;;;;;;;10.27;5.70;;;;;;;-4.43;96.38;102121.63;5030991;28;20041;-80
2022/01/24 00:02:42;;;;;;;13.50;5.70;;;;;;;-4.45;96.51;102118.25;5030959;28;20561;-80
2022/01/24 00:05:08;;;;;;;9.63;4.68;;;;;;;-4.46;97.00;102108.53;5036274;28;20419;-79
2022/01/24 00:07:34;;;;;;;10.38;4.93;;;;;;;-4.46;96.55;102108.53;5035172;28;20103;-80
2022/01/24 00:10:04;;;;;;;9.93;5.53;;;;;;;-4.46;96.47;102114.72;5032476;28;20500;-80
2022/01/24 00:17:49;;;;;;;9.75;5.60;;;;;;;-4.41;96.78;102106.25;5032472;28;20041;-80
2022/01/24 00:28:28;;;;;;;11.10;5.22;;;;;;;-4.36;96.70;102109.31;5032550;28;20099;-81
2022/01/24 00:30:54;;;;;;;13.15;5.78;;;;;;;-4.35;96.60;102102.97;5031830;28;20405;-80
2022/01/24 00:33:20;;;;;;;11.18;5.05;;;;;;;-4.32;96.01;102103.53;5029949;28;20087;-82
2022/01/24 00:35:47;;;;;;;10.38;4.88;;;;;;;-4.30;96.28;102103.38;5034669;28;20033;-81
2022/01/24 00:38:13;;;;;;;8.80;4.93;;;;;;;-4.30;96.51;102084.63;5031446;28;20045;-81
2022/01/24 00:40:42;;;;;;;10.60;5.53;;;;;;;-4.31;96.22;102074.91;5037987;28;20124;-81
2022/01/24 00:43:23;;;;;;;11.32;5.55;;;;;;;-4.31;96.06;102072.22;5010871;28;20038;-81
2022/01/24 00:46:00;;;;;;;11.13;4.82;;;;;;;-4.30;95.85;102068.53;5029167;28;20051;-81
2022/01/24 00:48:41;;;;;;;11.30;5.38;;;;;;;-4.25;96.04;102071.63;5031396;28;20048;-81
2022/01/24 00:54:42;;;;;;;8.85;4.85;;;;;;;-4.22;95.74;102060.59;5032364;28;20037;-81
2022/01/24 00:56:45;;;;;;;11.25;5.50;;;;;;;-4.20;95.96;102058.59;5027665;28;20124;-82
2022/01/24 00:59:11;;;;;;;6.97;3.22;;;;;;;-4.17;95.97;102049.41;5031448;28;20045;-80
2022/01/24 01:01:37;;;;;;;9.45;4.40;;;;;;;-4.15;95.56;102048.28;5030566;28;20060;-80
2022/01/24 01:04:02;;;;;;;9.50;4.68;;;;;;;-4.11;96.17;102057.72;5030193;28;20091;-80
2022/01/24 01:06:28;;;;;;;10.43;5.15;;;;;;;-4.09;95.67;102036.13;5036004;28;20038;-79
2022/01/24 01:20:00;;;;;;;7.13;4.50;;;;;;;-4.01;95.69;102034.34;5026395;28;20055;-80
2022/01/24 01:22:26;;;;;;;8.63;4.50;;;;;;;-4.00;95.82;102038.72;5031257;28;20132;-80
2022/01/24 01:24:54;;;;;;;8.52;4.43;;;;;;;-3.97;96.21;102038.44;5029471;28;20037;-80
2022/01/24 01:27:34;;;;;;;7.60;4.28;;;;;;;-3.93;96.05;102030.09;5031207;28;20040;-81
2022/01/24 01:30:06;;;;;;;9.13;4.75;;;;;;;-3.94;95.85;102042.66;5025026;28;20045;-81
2022/01/24 01:54:47;;;;;;;8.95;5.38;;;;;;;-3.88;96.30;102039.34;5030205;28;20029;-80
2022/01/24 01:57:18;;;;;;;11.23;5.45;;;;;;;-3.87;96.40;102022.25;5033053;28;20041;-80
2022/01/24 01:59:44;;;;;;;8.98;3.97;;;;;;;-3.89;96.83;102018.88;5028479;28;20034;-79
2022/01/24 02:02:10;;;;;;;9.95;4.88;;;;;;;-3.88;96.67;102028.63;5032244;28;20053;-79
2022/01/24 02:04:36;;;;;;;12.00;5.35;;;;;;;-3.87;96.75;102018.72;5034713;28;20035;-79
2022/01/24 02:07:02;;;;;;;11.02;5.20;;;;;;;-3.87;96.67;102021.41;5033144;28;20045;-79
2022/01/24 02:09:33;;;;;;;11.15;5.40;;;;;;;-3.89;96.70;102026.09;5034112;28;20399;-78
2022/01/24 02:11:58;;;;;;;9.48;5.40;;;;;;;-3.92;96.48;102023.72;5034455;28;20044;-79
2022/01/24 02:14:31;;;;;;;9.98;5.13;;;;;;;-3.95;96.71;102023.03;5017120;28;20045;-79
2022/01/24 02:17:03;;;;;;;10.63;5.47;;;;;;;-3.98;96.80;102026.03;5034531;28;20033;-79
2022/01/24 02:19:49;;;;;;;11.57;5.43;;;;;;;-3.97;96.52;102041.13;5024621;28;20044;-79
2022/01/24 02:23:15;;;;;;;10.10;5.60;;;;;;;-3.94;96.85;102039.97;5033197;28;20033;-79
2022/01/24 02:25:11;;;;;;;11.63;5.63;;;;;;;-3.94;96.94;102021.19;5038765;28;20042;-80
2022/01/24 02:27:52;;;;;;;12.38;5.90;;;;;;;-4.00;96.92;102030.66;5033882;28;20041;-80
2022/01/24 02:30:48;;;;;;;11.30;6.50;;;;;;;-4.01;96.85;102034.34;5033393;28;20515;-80
2022/01/24 02:33:04;;;;;;;10.93;5.15;;;;;;;-3.99;96.96;102036.91;5035576;28;20049;-79
2022/01/24 02:35:29;;;;;;;10.52;5.95;;;;;;;-4.00;96.93;102035.19;5033925;28;20063;-79
2022/01/24 02:37:58;;;;;;;12.32;5.35;;;;;;;-4.01;97.25;102031.66;5032539;28;20033;-79
2022/01/24 02:40:25;;;;;;;11.43;5.93;;;;;;;-4.00;96.97;102027.16;5032349;28;20041;-79
2022/01/24 02:48:26;;;;;;;14.32;6.00;;;;;;;-4.01;97.54;102012.06;5033792;28;20064;-80
2022/01/24 02:53:22;;;;;;;12.25;5.95;;;;;;;-4.00;97.51;101998.50;5034254;28;20136;-80
2022/01/24 02:55:48;;;;;;;10.73;5.18;;;;;;;-3.96;97.39;102017.81;5032757;28;20045;-80
2022/01/24 02:58:15;;;;;;;10.23;5.70;;;;;;;-3.97;97.05;102005.41;5032248;28;20424;-80
2022/01/24 03:00:41;;;;;;;11.02;5.45;;;;;;;-4.00;97.57;102009.22;5033822;28;20040;-80
2022/01/24 03:03:07;;;;;;;12.35;5.63;;;;;;;-3.99;97.81;102008.25;5034647;28;20034;-79
2022/01/24 03:05:32;;;;;;;11.43;5.57;;;;;;;-3.98;97.53;102009.94;5033788;28;20155;-79
2022/01/24 03:07:59;;;;;;;12.57;5.28;;;;;;;-3.96;97.43;102007.94;5032201;28;20068;-79
2022/01/24 03:10:28;;;;;;;10.35;5.00;;;;;;;-3.93;97.73;102014.00;5031857;28;20152;-79
2022/01/24 03:13:32;;;;;;;7.97;4.63;;;;;;;-3.92;97.54;102002.28;5034829;28;20060;-80
2022/01/24 03:15:48;;;;;;;8.98;4.85;;;;;;;-3.91;97.68;102006.63;5036835;28;20053;-80
2022/01/24 03:18:14;;;;;;;11.98;5.25;;;;;;;-3.93;97.77;102000.59;5034253;28;20112;-80
2022/01/24 03:20:40;;;;;;;10.40;5.50;;;;;;;-3.92;98.14;101992.38;5034082;28;20538;-79
2022/01/24 03:23:06;;;;;;;11.15;5.75;;;;;;;-3.90;97.88;101984.19;5038362;28;20053;-78
2022/01/24 03:25:32;;;;;;;12.60;6.05;;;;;;;-3.89;97.92;101980.50;5035397;28;20052;-78
2022/01/24 03:27:58;;;;;;;10.80;4.35;;;;;;;-3.89;98.23;101983.19;5034762;28;20038;-78
2022/01/24 03:30:24;;;;;;;10.60;5.00;;;;;;;-3.87;97.39;101989.25;5034047;28;20029;-79
2022/01/24 03:32:50;;;;;;;10.27;5.32;;;;;;;-3.87;97.66;101981.19;5034106;28;20092;-79
2022/01/24 03:35:16;;;;;;;12.40;5.35;;;;;;;-3.88;98.04;101976.84;5036245;28;20115;-79
2022/01/24 03:37:42;;;;;;;9.55;4.80;;;;;;;-3.86;97.79;101974.84;5033375;28;20045;-80
2022/01/24 03:40:08;;;;;;;10.20;5.68;;;;;;;-3.85;97.96;101980.03;5032139;28;20115;-80
2022/01/24 03:42:35;;;;;;;10.85;5.45;;;;;;;-3.83;98.02;101972.69;5032929;28;20128;-80
2022/01/24 03:45:04;;;;;;;8.80;4.68;;;;;;;-3.81;97.62;101976.06;5032623;28;20041;-80
2022/01/24 03:50:07;;;;;;;3.80;2.92;;;;;;;-3.76;98.35;101968.41;5032620;28;19979;-78
2022/01/24 03:52:33;;;;;;;6.20;2.95;;;;;;;-3.74;98.13;101954.84;5014491;28;20454;-78
2022/01/24 03:55:02;;;;;;;6.82;3.10;;;;;;;-3.74;98.23;101963.72;5032171;28;20087;-79
2022/01/24 03:57:28;;;;;;;8.75;4.07;;;;;;;-3.73;97.99;101953.84;5031204;28;20033;-79
2022/01/24 03:59:54;;;;;;;5.75;3.20;;;;;;;-3.73;97.98;101964.56;5030338;28;20442;-79
2022/01/24 04:02:23;;;;;;;8.43;2.83;;;;;;;-3.71;97.76;101966.09;5032924;28;20424;-80
2022/01/24 04:04:49;;;;;;;6.75;3.08;;;;;;;-3.71;98.19;101960.72;5044077;28;20042;-79
2022/01/24 04:07:15;;;;;;;5.82;2.50;;;;;;;-3.69;97.68;101955.19;5032269;28;20056;-79
2022/01/24 04:09:41;;;;;;;5.90;2.50;;;;;;;-3.68;98.25;101957.72;5027754;28;20415;-79
2022/01/24 04:12:08;;;;;;;8.65;4.78;;;;;;;-3.68;98.19;101944.31;5032659;28;20077;-78
2022/01/24 04:22:12;;;;;;;6.63;2.85;;;;;;;-3.69;98.29;101928.38;5030644;28;20052;-82
2022/01/24 04:24:37;;;;;;;7.03;3.25;;;;;;;-3.69;97.73;101933.75;5062794;28;20029;-78
2022/01/24 04:27:04;;;;;;;7.25;4.03;;;;;;;-3.69;98.16;101929.22;5029027;28;20042;-78
2022/01/24 04:29:32;;;;;;;7.53;3.83;;;;;;;-3.67;98.05;101929.91;5012867;28;20128;-78
2022/01/24 04:31:58;;;;;;;8.52;3.20;;;;;;;-3.68;97.88;101919.34;5031721;28;20040;-79
2022/01/24 04:34:23;;;;;;;5.72;3.28;;;;;;;-3.68;98.41;101925.53;5031520;28;20041;-78
2022/01/24 04:36:49;;;;;;;7.22;3.58;;;;;;;-3.67;98.22;101921.84;5032328;28;20128;-78
2022/01/24 04:39:15;;;;;;;6.50;3.00;;;;;;;-3.66;98.02;101922.69;5031498;28;20039;-79
2022/01/24 04:41:45;;;;;;;9.27;3.78;;;;;;;-3.68;98.43;101917.50;5029057;28;20049;-78
2022/01/24 04:47:02;;;;;;;7.57;3.70;;;;;;;-3.65;98.30;101919.84;5030959;28;20041;-79
2022/01/24 04:55:04;;;;;;;6.43;3.50;;;;;;;-3.58;98.20;101913.88;5003376;28;20045;-78
2022/01/24 04:57:30;;;;;;;8.07;3.63;;;;;;;-3.57;98.47;101912.88;5029738;28;20564;-78
2022/01/24 04:59:58;;;;;;;5.38;2.10;;;;;;;-3.58;97.79;101912.03;5030169;28;20077;-78
2022/01/24 05:02:25;;;;;;;5.75;2.42;;;;;;;-3.58;98.43;101895.94;5011478;28;20042;-78
2022/01/24 05:04:52;;;;;;;5.00;2.38;;;;;;;-3.56;98.58;101895.78;5011792;28;20412;-78
2022/01/24 05:07:17;;;;;;;6.82;3.17;;;;;;;-3.57;98.06;101888.72;5029851;28;20042;-79
2022/01/24 05:23:32;;;;;;;2.45;1.25;;;;;;;-3.50;98.33;101877.19;5029651;28;20455;-79
2022/01/24 05:26:01;;;;;;;3.90;1.98;;;;;;;-3.49;98.00;101878.88;5031070;28;20029;-80
2022/01/24 05:28:27;;;;;;;5.45;2.53;;;;;;;-3.48;98.26;101882.41;5031085;28;20045;-79
2022/01/24 05:30:53;;;;;;;4.32;2.67;;;;;;;-3.46;98.26;101883.94;5029874;28;20037;-78
2022/01/24 05:33:19;;;;;;;8.00;3.83;;;;;;;-3.44;98.47;101876.59;5030118;28;20067;-79
2022/01/24 05:35:45;;;;;;;5.75;2.63;;;;;;;-3.44;98.40;101879.25;5029230;28;20411;-77
2022/01/24 05:38:11;;;;;;;5.50;2.35;;;;;;;-3.46;98.48;101880.44;5030925;28;20049;-80
2022/01/24 05:40:37;;;;;;;7.05;2.65;;;;;;;-3.45;98.15;101874.91;5025585;28;20103;-80
2022/01/24 05:43:03;;;;;;;9.93;4.00;;;;;;;-3.44;98.04;101879.25;5030609;28;20045;-80
2022/01/24 05:45:29;;;;;;;8.88;3.25;;;;;;;-3.44;98.04;101862.31;5030447;28;20043;-80
2022/01/24 05:47:54;;;;;;;6.93;2.65;;;;;;;-3.42;98.43;101876.41;5031327;28;20120;-80
2022/01/24 05:50:20;;;;;;;3.20;1.33;;;;;;;-3.41;98.05;101878.94;5030777;28;20044;-80
2022/01/24 05:52:46;;;;;;;5.53;3.00;;;;;;;-3.41;98.23;101870.88;5030263;28;20183;-77
2022/01/24 05:55:12;;;;;;;4.53;2.85;;;;;;;-3.40;98.08;101871.72;5009611;28;20046;-78
2022/01/24 05:57:37;;;;;;;4.20;2.25;;;;;;;-3.37;98.53;101864.19;5012452;28;20048;-80
2022/01/24 06:00:08;;;;;;;7.88;3.30;;;;;;;-3.37;98.19;101861.50;5029780;28;20099;-79
2022/01/24 06:02:38;;;;;;;1.70;1.15;;;;;;;-3.38;98.25;101851.78;5030425;28;20041;-80
2022/01/24 06:05:04;;;;;;;4.55;1.92;;;;;;;-3.38;98.82;101864.34;5030802;28;20082;-80
2022/01/24 06:07:29;;;;;;;4.10;1.88;;;;;;;-3.38;98.08;101862.50;5029329;28;20537;-80
2022/01/24 06:09:55;;;;;;;3.95;1.98;;;;;;;-3.36;98.20;101868.56;5029069;28;20490;-78
2022/01/24 06:12:21;;;;;;;4.20;2.45;;;;;;;-3.37;98.28;101850.78;5028908;28;20065;-79
2022/01/24 06:14:46;;;;;;;1.23;0.80;;;;;;;-3.37;98.20;101852.63;5017816;28;20069;-79
2022/01/24 06:17:12;;;;;;;6.38;2.47;;;;;;;-3.36;98.20;101849.78;5026870;28;20041;-81
2022/01/24 06:19:38;;;;;;;3.10;1.45;;;;;;;-3.35;98.68;101845.25;5030043;28;20055;-79
2022/01/24 06:22:04;;;;;;;7.53;3.15;;;;;;;-3.33;98.13;101837.88;5030454;28;20053;-79
2022/01/24 06:24:29;;;;;;;3.17;1.48;;;;;;;-3.33;98.50;101845.91;5030340;28;20474;-79
2022/01/24 06:26:55;;;;;;;4.28;2.45;;;;;;;-3.30;97.99;101845.59;5030347;28;20044;-79
2022/01/24 06:29:21;;;;;;;3.88;1.45;;;;;;;-3.31;98.31;101832.34;5029352;28;20041;-79
2022/01/24 06:31:47;;;;;;;5.07;2.10;;;;;;;-3.31;98.13;101841.22;5030231;28;20045;-79
2022/01/24 06:34:12;;;;;;;4.65;2.15;;;;;;;-3.30;98.33;101820.59;5012447;28;20196;-79
2022/01/24 06:36:38;;;;;;;3.85;1.73;;;;;;;-3.27;98.12;101836.41;5030403;28;20036;-78
2022/01/24 06:39:06;;;;;;;5.13;2.42;;;;;;;-3.26;97.96;101835.41;5030195;28;20056;-77
2022/01/24 06:41:34;;;;;;;5.35;2.05;;;;;;;-3.24;98.17;101834.22;5028862;28;20040;-78
2022/01/24 06:44:01;;;;;;;3.70;1.75;;;;;;;-3.21;97.92;101833.06;5030052;28;20530;-78
2022/01/24 06:46:26;;;;;;;5.88;2.70;;;;;;;-3.20;98.04;101821.31;5029420;28;20049;-79
2022/01/24 06:48:52;;;;;;;3.85;1.92;;;;;;;-3.19;98.66;101804.22;5032338;28;20041;-80
2022/01/24 06:51:19;;;;;;;3.78;1.98;;;;;;;-3.22;97.99;101818.81;5034596;28;20041;-79
2022/01/24 06:53:44;;;;;;;5.75;2.65;;;;;;;-3.21;98.05;101817.81;5032260;28;20443;-80
2022/01/24 06:56:10;;;;;;;1.40;1.08;;;;;;;-3.19;98.13;101814.94;5033549;28;20132;-80
2022/01/24 06:58:36;;;;;;;3.38;2.20;;;;;;;-3.17;98.20;101813.78;5033832;28;20491;-79
2022/01/24 07:01:02;;;;;;;4.47;2.13;;;;;;;-3.16;98.26;101811.94;5033886;28;20091;-76
2022/01/24 07:03:28;;;;;;;3.75;1.90;;;;;;;-3.14;98.13;101817.97;5021538;28;20070;-77
2022/01/24 07:05:54;;;;;;;5.45;2.20;;;;;;;-3.13;98.49;101807.06;5014316;28;20084;-78
2022/01/24 07:08:19;;;;;;;4.43;2.05;;;;;;;-3.11;98.08;101805.09;5025750;28;20037;-74
2022/01/24 07:10:45;;;;;;;3.72;1.67;;;;;;;-3.09;98.27;101807.63;5032547;28;20433;-76
2022/01/24 07:13:11;;;;;;;3.83;2.67;;;;;;;-3.09;97.95;101800.41;5033171;28;20484;-84
2022/01/24 07:15:46;;;;;;;5.57;2.90;;;;;;;-3.08;97.83;101793.19;5033813;28;20037;-82
2022/01/24 07:20:53;;;;;;;3.25;1.75;;;;;;;-3.08;98.00;101780.59;5032106;28;20168;-84
2022/01/24 07:23:19;;;;;;;5.03;2.40;;;;;;;-3.06;97.97;101792.00;5032546;28;20045;-82
2022/01/24 07:25:45;;;;;;;4.53;2.28;;;;;;;-3.05;98.01;101798.22;5035198;28;20037;-92
2022/01/24 07:28:11;;;;;;;2.00;1.70;;;;;;;-3.04;98.03;101790.00;5017117;28;20103;-83
2022/01/24 07:30:37;;;;;;;2.67;1.42;;;;;;;-2.97;97.78;101790.16;5033847;28;20041;-86
2022/01/24 07:33:02;;;;;;;4.03;2.50;;;;;;;-2.92;97.99;101787.84;5037060;28;20091;-90
2022/01/24 07:35:28;;;;;;;4.53;2.22;;;;;;;-2.90;97.92;101785.84;5041251;28;20468;-87
2022/01/24 07:37:54;;;;;;;3.25;1.73;;;;;;;-2.88;98.03;101783.81;5070794;28;20033;-87
2022/01/24 07:40:21;;;;;;;3.42;2.03;;;;;;;-2.86;97.71;101776.44;5033335;28;20042;-85
2022/01/24 07:43:08;;;;;;;2.20;1.48;;;;;;;-2.87;97.70;101774.75;5036917;28;20038;-92
2022/01/24 07:45:34;;;;;;;1.55;0.90;;;;;;;-2.86;97.91;101773.75;5039984;28;20037;-89
2022/01/24 07:48:00;;;;;;;3.42;1.48;;;;;;;-2.86;97.97;101764.84;5038762;28;20048;-82
2022/01/24 07:50:27;;;;;;;2.03;1.27;;;;;;;-2.84;97.50;101771.75;5034584;28;20411;-78
2022/01/24 07:52:53;;;;;;;2.75;1.85;;;;;;;-2.81;97.29;101759.81;5032504;28;20051;-78
2022/01/24 07:55:19;;;;;;;5.00;2.83;;;;;;;-2.82;97.76;101761.66;5032654;28;20500;-78
2022/01/24 07:57:44;;;;;;;4.50;2.15;;;;;;;-2.80;97.94;101764.19;5032509;28;20092;-78
2022/01/24 08:00:11;;;;;;;2.75;1.50;;;;;;;-2.77;97.41;101761.19;5030181;28;20055;-78
2022/01/24 08:02:40;;;;;;;2.70;1.48;;;;;;;-2.78;97.68;101765.72;5031827;28;20045;-83
2022/01/24 08:05:07;;;;;;;4.82;2.13;;;;;;;-2.75;97.90;101768.06;5067025;28;20037;-86
2022/01/24 08:07:33;;;;;;;2.20;1.33;;;;;;;-2.72;97.55;101769.59;5037250;28;20057;-85
2022/01/24 08:09:58;;;;;;;3.28;1.60;;;;;;;-2.69;97.33;101774.63;5020513;28;20085;-84
2022/01/24 08:12:24;;;;;;;3.42;1.52;;;;;;;-2.66;97.44;101765.38;5033463;28;20048;-82
2022/01/24 08:14:50;;;;;;;3.70;2.15;;;;;;;-2.66;97.62;101750.09;5031182;28;20416;-83
2022/01/24 08:17:16;;;;;;;2.15;1.48;;;;;;;-2.65;97.87;101751.78;5035230;28;20500;-88
2022/01/24 08:19:41;;;;;;;4.72;2.67;;;;;;;-2.63;97.75;101747.06;5036326;28;20050;-86
2022/01/24 08:22:07;;;;;;;3.78;0.93;;;;;;;-2.61;97.45;101745.06;5034459;28;20045;-81
2022/01/24 08:24:33;;;;;;;1.35;0.98;;;;;;;-2.61;97.61;101734.31;5032040;28;20496;-80
2022/01/24 08:26:58;;;;;;;2.50;1.65;;;;;;;-2.60;97.52;101732.50;5032648;28;20496;-85
2022/01/24 08:29:24;;;;;;;1.67;0.75;;;;;;;-2.58;97.63;101743.91;5031527;28;20034;-85
2022/01/24 08:31:49;;;;;;;2.35;1.27;;;;;;;-2.55;97.20;101733.66;5032449;28;20073;-78
2022/01/24 08:34:15;;;;;;;2.17;1.30;;;;;;;-2.53;97.03;101728.09;5030076;28;20429;-79
2022/01/24 08:36:41;;;;;;;3.22;1.45;;;;;;;-2.55;97.48;101733.66;5020789;28;20046;-84
2022/01/24 08:39:08;;;;;;;2.70;1.15;;;;;;;-2.52;97.27;101729.78;5028639;28;20115;-86
2022/01/24 08:42:25;;;;;;;3.97;2.10;;;;;;;-2.52;97.36;101738.69;5024821;28;20038;-84
2022/01/24 08:46:49;;;;;;;2.83;1.42;;;;;;;-2.49;97.16;101734.81;5048065;28;20075;-85
2022/01/24 08:49:15;;;;;;;3.67;2.30;;;;;;;-2.49;97.23;101738.34;5051565;28;20399;-85
2022/01/24 08:51:42;;;;;;;2.10;1.63;;;;;;;-2.47;97.23;101740.84;5052002;28;20487;-87
2022/01/24 08:54:08;;;;;;;4.03;2.10;;;;;;;-2.48;96.92;101742.72;5050233;28;20622;-85
2022/01/24 08:56:34;;;;;;;4.63;1.88;;;;;;;-2.43;96.97;101734.13;5032474;28;20116;-82
2022/01/24 08:59:00;;;;;;;2.03;1.15;;;;;;;-2.41;97.08;101715.19;5033790;28;20039;-82
2022/01/24 09:01:26;;;;;;;2.17;1.40;;;;;;;-2.38;96.82;101720.22;5033918;28;20041;-82
2022/01/24 09:03:52;;;;;;;2.25;1.27;;;;;;;-2.38;97.31;101714.84;5035089;28;20529;-81
2022/01/24 09:06:19;;;;;;;3.58;1.63;;;;;;;-2.37;97.09;101719.19;5032634;28;20052;-84
2022/01/24 09:08:45;;;;;;;0.70;0.50;;;;;;;-2.37;97.12;101717.34;5016226;28;20128;-82
2022/01/24 09:11:11;;;;;;;2.70;1.50;;;;;;;-2.36;96.76;101707.44;5044090;28;20045;-83
2022/01/24 09:13:37;;;;;;;0.45;0.40;;;;;;;-2.36;96.65;101708.28;5037876;28;20407;-84
2022/01/24 09:16:03;;;;;;;1.55;1.45;;;;;;;-2.36;96.76;101704.75;5036027;28;20132;-82
2022/01/24 09:18:29;;;;;;;2.13;1.20;;;;;;;-2.35;96.48;101709.94;5033799;28;20041;-78
2022/01/24 09:20:56;;;;;;;2.65;1.70;;;;;;;-2.35;96.85;101707.25;5034545;28;20396;-83
2022/01/24 09:23:22;;;;;;;1.65;1.17;;;;;;;-2.32;96.68;101708.75;5032742;28;20037;-86
2022/01/24 09:25:49;;;;;;;1.77;1.30;;;;;;;-2.33;96.27;101702.56;5022552;28;20038;-86
2022/01/24 09:28:15;;;;;;;5.38;2.78;;;;;;;-2.29;96.79;101698.50;5059023;28;20052;-84
2022/01/24 09:30:41;;;;;;;3.45;2.63;;;;;;;-2.27;96.23;101691.09;5014304;28;20059;-81
2022/01/24 09:33:06;;;;;;;5.55;3.17;;;;;;;-2.24;96.43;101690.78;5022587;28;20041;-82
2022/01/24 09:35:32;;;;;;;7.35;3.00;;;;;;;-2.25;96.76;101689.09;5034143;28;20049;-84
2022/01/24 09:37:58;;;;;;;6.75;3.00;;;;;;;-2.24;96.63;101693.47;5036130;28;20124;-81
2022/01/24 09:40:24;;;;;;;4.93;2.72;;;;;;;-2.24;96.35;101679.19;5034992;28;20470;-81
2022/01/24 09:42:50;;;;;;;3.83;2.60;;;;;;;-2.23;96.43;101697.84;5048107;28;20037;-82
2022/01/24 09:45:17;;;;;;;3.90;2.60;;;;;;;-2.20;96.32;101694.81;5028357;28;20041;-82
2022/01/24 09:47:43;;;;;;;4.75;2.50;;;;;;;-2.18;96.14;101694.63;5032931;28;20492;-83
2022/01/24 09:50:12;;;;;;;5.85;3.30;;;;;;;-2.16;96.03;101688.06;5032307;28;20528;-80
2022/01/24 09:52:42;;;;;;;6.03;3.17;;;;;;;-2.13;95.93;101682.34;5034265;28;20045;-81
2022/01/24 09:55:08;;;;;;;4.70;3.00;;;;;;;-2.19;96.07;101682.19;5034045;28;20064;-82
2022/01/24 09:57:35;;;;;;;5.78;2.90;;;;;;;-2.18;95.72;101678.50;5035298;28;20037;-83
2022/01/24 10:00:02;;;;;;;4.70;2.50;;;;;;;-2.15;95.65;101672.78;5039577;28;20081;-84
2022/01/24 10:02:37;;;;;;;4.55;3.05;;;;;;;-2.16;95.71;101663.88;5025973;28;20038;-82
2022/01/24 10:05:18;;;;;;;6.03;3.08;;;;;;;-2.12;95.83;101662.50;5030968;28;20128;-83
2022/01/24 10:07:54;;;;;;;5.18;2.65;;;;;;;-2.10;95.25;101659.63;5029857;28;20537;-85
2022/01/24 10:10:31;;;;;;;4.97;2.83;;;;;;;-2.09;95.96;101657.78;5045402;28;20029;-83
2022/01/24 10:16:36;;;;;;;4.95;2.80;;;;;;;-2.08;95.26;101662.16;5046971;28;20044;-84
2022/01/24 10:19:20;;;;;;;4.22;2.60;;;;;;;-2.08;95.69;101649.56;5040077;28;20052;-83
2022/01/24 10:21:50;;;;;;;5.32;3.13;;;;;;;-2.07;95.27;101628.91;5045031;28;20053;-84
2022/01/24 10:24:40;;;;;;;4.68;2.60;;;;;;;-2.07;95.52;101636.97;5033780;28;20032;-84
2022/01/24 10:27:11;;;;;;;5.60;3.13;;;;;;;-2.03;95.46;101632.91;5041695;28;20048;-82
2022/01/24 10:29:41;;;;;;;5.90;3.17;;;;;;;-2.05;95.16;101625.00;5038121;28;20514;-82
2022/01/24 10:32:07;;;;;;;5.03;3.05;;;;;;;-2.06;95.03;101622.50;5048114;28;20040;-81
2022/01/24 10:34:37;;;;;;;5.20;3.00;;;;;;;-2.04;94.97;101632.06;5049893;28;20033;-81
2022/01/24 10:37:03;;;;;;;5.03;3.28;;;;;;;-2.03;94.89;101625.69;5045970;28;20087;-83
2022/01/24 10:39:43;;;;;;;6.28;2.83;;;;;;;-2.01;94.63;101630.88;5047811;28;20087;-78
2022/01/24 10:45:12;;;;;;;6.95;3.10;;;;;;;-1.99;95.07;101618.09;5043491;28;20133;-84
2022/01/24 10:47:44;;;;;;;5.05;3.00;;;;;;;-1.99;94.45;101621.63;5042711;28;20033;-82
2022/01/24 10:50:12;;;;;;;5.97;3.05;;;;;;;-2.01;95.04;101626.34;5042673;28;20101;-84
2022/01/24 10:52:38;;;;;;;3.63;2.65;;;;;;;-2.03;94.44;101616.78;5034311;28;20124;-84
2022/01/24 10:55:13;;;;;;;5.25;2.97;;;;;;;-2.03;94.61;101611.38;5050904;28;20040;-85
2022/01/24 10:57:40;;;;;;;4.43;2.85;;;;;;;-2.01;94.31;101610.19;5026839;28;20479;-82
2022/01/24 11:00:23;;;;;;;5.10;3.28;;;;;;;-2.01;94.77;101612.06;5039624;28;20068;-84
2022/01/24 11:02:50;;;;;;;4.15;2.33;;;;;;;-1.98;94.86;101611.69;5059294;28;20105;-84
2022/01/24 11:05:22;;;;;;;5.35;3.15;;;;;;;-1.99;94.37;101608.16;5055098;28;20056;-85
2022/01/24 11:07:58;;;;;;;5.55;3.28;;;;;;;-1.99;94.58;101599.25;5045174;28;20030;-85
2022/01/24 11:10:29;;;;;;;3.42;2.50;;;;;;;-1.96;94.73;101612.34;5041501;28;20084;-81
2022/01/24 11:12:54;;;;;;;4.05;2.38;;;;;;;-1.96;94.87;101599.75;5055473;28;20051;-78
2022/01/24 11:15:21;;;;;;;4.38;2.50;;;;;;;-1.97;94.56;101600.75;5043461;28;20045;-79
2022/01/24 11:17:47;;;;;;;3.40;2.17;;;;;;;-1.94;94.54;101599.56;5029697;28;20069;-74
2022/01/24 11:20:17;;;;;;;2.83;1.73;;;;;;;-1.96;94.71;101590.84;5038413;28;20065;-76
2022/01/24 11:22:57;;;;;;;3.03;1.95;;;;;;;-1.98;94.52;101582.94;5030308;28;20044;-77
2022/01/24 11:25:24;;;;;;;3.25;2.05;;;;;;;-1.96;94.33;101582.78;5049694;28;20040;-77
2022/01/24 11:27:49;;;;;;;3.05;1.27;;;;;;;-1.95;94.23;101579.06;5035966;28;20124;-79
2022/01/24 11:30:22;;;;;;;3.97;1.70;;;;;;;-1.95;94.41;101590.66;5048640;28;20124;-80
2022/01/24 11:33:04;;;;;;;3.47;1.90;;;;;;;-1.95;93.99;101593.34;5041546;28;20140;-79
2022/01/24 11:35:33;;;;;;;4.05;1.85;;;;;;;-1.94;94.15;101588.81;5046685;28;20123;-79
2022/01/24 11:37:59;;;;;;;3.20;2.00;;;;;;;-1.90;94.38;101592.84;5034005;28;20042;-78
2022/01/24 11:40:26;;;;;;;2.40;1.77;;;;;;;-1.89;94.24;101584.59;5033093;28;20056;-78
2022/01/24 11:42:52;;;;;;;3.28;1.58;;;;;;;-1.90;94.40;101591.00;5036681;28;20385;-79
2022/01/24 11:45:44;;;;;;;2.13;1.30;;;;;;;-1.89;94.18;101581.06;5032358;28;20064;-80
2022/01/24 11:48:23;;;;;;;3.08;1.80;;;;;;;-1.89;94.11;101578.38;5031511;28;20075;-78
2022/01/24 11:50:57;;;;;;;2.13;1.27;;;;;;;-1.88;94.07;101580.06;5032530;28;20033;-77
2022/01/24 11:53:27;;;;;;;2.00;1.80;;;;;;;-1.86;94.37;101573.47;5032845;28;20044;-77
2022/01/24 11:55:55;;;;;;;1.10;0.98;;;;;;;-1.89;94.16;101564.94;5027718;28;20060;-78
2022/01/24 11:58:30;;;;;;;3.40;1.45;;;;;;;-1.89;94.77;101570.31;5031966;28;20043;-79
2022/01/24 12:01:02;;;;;;;2.35;1.55;;;;;;;-1.89;94.12;101559.56;5025930;28;20128;-78
2022/01/24 12:03:29;;;;;;;3.47;1.60;;;;;;;-1.90;94.14;101558.72;5033296;28;20038;-85
2022/01/24 12:06:09;;;;;;;2.30;1.70;;;;;;;-1.91;94.50;101558.88;5011107;28;20034;-86
2022/01/24 12:08:36;;;;;;;2.92;1.40;;;;;;;-1.92;94.73;101546.44;5027362;28;20043;-79
2022/01/24 12:11:16;;;;;;;2.42;1.48;;;;;;;-1.91;94.49;101558.88;5030821;28;20037;-79
2022/01/24 12:13:46;;;;;;;;;;;;;;;-1.92;94.37;101555.34;5036478;28;20041;-80
2022/01/24 12:16:13;;;;;;;3.42;1.30;;;;;;;-1.91;94.58;101542.72;5029519;28;19925;-86
2022/01/24 12:18:39;;;;;;;1.77;1.33;;;;;;;-1.92;94.54;101559.88;5029956;28;20113;-83
2022/01/24 12:21:08;;;;;;;3.75;1.77;;;;;;;-1.91;94.31;101559.72;5033288;28;20133;-84
2022/01/24 12:23:43;;;;;;;1.05;0.82;;;;;;;-1.91;94.46;101540.91;5033224;28;20072;-82
2022/01/24 12:26:11;;;;;;;1.25;1.05;;;;;;;-1.91;94.60;101545.41;5032165;28;20039;-77
2022/01/24 12:28:43;;;;;;;2.15;1.38;;;;;;;-1.92;94.95;101552.66;5030260;28;20044;-80
2022/01/24 12:31:27;;;;;;;3.22;1.63;;;;;;;-1.92;94.78;101546.44;5025778;28;20065;-80
2022/01/24 12:33:53;;;;;;;1.20;0.90;;;;;;;-1.91;94.74;101535.53;5029650;28;20040;-80
2022/01/24 12:36:37;;;;;;;4.03;1.83;;;;;;;-1.91;95.24;101535.53;5031174;28;20037;-77
2022/01/24 12:39:12;;;;;;;2.67;1.45;;;;;;;-1.91;95.27;101545.41;5030338;28;20045;-75
2022/01/24 12:41:43;;;;;;;2.03;1.60;;;;;;;-1.85;95.13;101539.34;5029196;28;20065;-78
2022/01/24 12:46:16;;;;;;;3.75;1.75;;;;;;;-1.84;95.69;101535.63;5027777;28;20053;-79
2022/01/24 12:46:55;;;;;;;2.85;1.65;;;;;;;-1.86;95.38;101534.97;5029276;28;20045;-77
2022/01/24 12:49:24;;;;;;;2.67;1.50;;;;;;;-1.88;95.33;101539.69;5030803;28;20037;-77
2022/01/24 12:51:49;;;;;;;2.03;1.52;;;;;;;-1.90;95.12;101525.59;5046937;28;20044;-79
2022/01/24 12:54:16;;;;;;;3.88;1.58;;;;;;;-1.89;95.31;101533.50;5030856;28;20129;-77
2022/01/24 12:56:42;;;;;;;2.22;1.60;;;;;;;-1.87;95.39;101536.84;5032101;28;20047;-78
2022/01/24 12:59:08;;;;;;;3.47;1.92;;;;;;;-1.86;95.24;101529.59;5032179;28;20029;-79
2022/01/24 13:01:37;;;;;;;3.58;1.42;;;;;;;-1.86;95.33;101511.59;5029159;28;20543;-78
2022/01/24 13:04:02;;;;;;;3.58;1.55;;;;;;;-1.85;95.16;101507.06;5030534;28;20042;-78
2022/01/24 13:06:36;;;;;;;2.72;1.65;;;;;;;-1.84;95.33;101504.19;5032052;28;20029;-77
2022/01/24 13:09:03;;;;;;;2.95;1.60;;;;;;;-1.79;95.53;101502.81;5027120;28;20059;-77
2022/01/24 13:11:30;;;;;;;2.15;1.15;;;;;;;-1.79;95.01;101500.97;5037550;28;20043;-77